createdAt,value
2022-11-11T00:02:42.275Z,7.49
2022-11-11T00:05:29.862Z,8.33
2022-11-11T00:08:17.464Z,15.86
2022-11-11T00:11:05.042Z,18.25
2022-11-11T00:13:52.633Z,18.37
2022-11-11T00:16:40.221Z,13.67
2022-11-11T00:19:27.795Z,10.38
2022-11-11T00:22:17.344Z,12.83
2022-11-11T00:25:04.924Z,9.36
2022-11-11T00:27:52.498Z,7.99
2022-11-11T00:30:40.062Z,7.79
2022-11-11T00:33:27.642Z,9.56
2022-11-11T00:36:15.538Z,9.78
2022-11-11T00:39:03.096Z,10.69
2022-11-11T00:41:50.680Z,10.34
2022-11-11T00:44:38.279Z,10.43
2022-11-11T00:47:25.963Z,10.12
2022-11-11T00:50:13.562Z,13.42
2022-11-11T00:53:01.214Z,14.29
2022-11-11T00:55:48.846Z,13.92
2022-11-11T00:58:36.472Z,13.05
2022-11-11T01:01:24.158Z,12.62
2022-11-11T01:04:11.788Z,15.26
2022-11-11T01:06:59.533Z,14.91
2022-11-11T01:09:47.265Z,13.73
2022-11-11T01:12:34.979Z,13.34
2022-11-11T01:15:22.579Z,13.72
2022-11-11T01:18:10.167Z,14.87
2022-11-11T01:20:57.916Z,11.26
2022-11-11T01:23:45.751Z,11.19
2022-11-11T01:26:33.328Z,10.34
2022-11-11T01:29:20.995Z,11.61
2022-11-11T01:32:08.657Z,15.05
2022-11-11T01:34:56.265Z,13.24
2022-11-11T01:37:43.858Z,12.22
2022-11-11T01:40:31.485Z,12.27
2022-11-11T01:43:19.181Z,14.75
2022-11-11T01:46:06.790Z,17.68
2022-11-11T01:48:54.373Z,21.85
2022-11-11T01:51:41.983Z,26.63
2022-11-11T01:54:29.694Z,27.17
2022-11-11T01:57:17.387Z,24.36
2022-11-11T02:00:05.151Z,17.68
2022-11-11T02:02:53.029Z,16.64
2022-11-11T02:05:40.703Z,16.55
2022-11-11T02:08:28.294Z,17.67
2022-11-11T02:11:15.880Z,17.32
2022-11-11T02:14:03.561Z,17.03
2022-11-11T02:16:51.264Z,16.94
2022-11-11T02:19:38.998Z,17.56
2022-11-11T02:22:26.676Z,16.55
2022-11-11T02:25:16.325Z,18.14
2022-11-11T02:28:04.089Z,18.26
2022-11-11T02:30:51.798Z,18.67
2022-11-11T02:33:39.578Z,19.31
2022-11-11T02:36:27.161Z,20.50
2022-11-11T02:39:14.885Z,21.02
2022-11-11T02:42:02.624Z,22.39
2022-11-11T02:44:50.383Z,22.46
2022-11-11T02:47:38.046Z,21.69
2022-11-11T02:50:25.785Z,21.51
2022-11-11T02:53:13.389Z,20.23
2022-11-11T02:56:01.080Z,18.13
2022-11-11T02:58:49.102Z,19.68
2022-11-11T03:01:37.064Z,19.93
2022-11-11T03:04:24.796Z,20.48
2022-11-11T03:07:12.443Z,19.44
2022-11-11T03:10:00.322Z,18.61
2022-11-11T03:12:48.142Z,17.95
2022-11-11T03:15:35.748Z,17.22
2022-11-11T03:18:23.418Z,17.01
2022-11-11T03:22:09.999Z,16.51
2022-11-11T03:24:18.552Z,16.09
2022-11-11T03:27:06.154Z,15.98
2022-11-11T03:29:53.728Z,16.59
2022-11-11T03:32:41.283Z,16.22
2022-11-11T03:35:28.917Z,15.36
2022-11-11T03:38:16.488Z,14.34
2022-11-11T03:41:04.078Z,14.69
2022-11-11T03:43:51.657Z,14.02
2022-11-11T03:46:39.251Z,14.02
2022-11-11T03:49:26.797Z,14.28
2022-11-11T03:52:14.397Z,14.80
2022-11-11T03:55:01.961Z,15.57
2022-11-11T03:57:49.563Z,14.40
2022-11-11T04:00:37.121Z,15.02
2022-11-11T04:03:25.124Z,14.95
2022-11-11T04:06:12.980Z,14.69
2022-11-11T04:09:00.592Z,14.57
2022-11-11T04:11:48.182Z,12.98
2022-11-11T04:14:55.708Z,12.94
2022-11-11T04:17:43.572Z,10.89
2022-11-11T04:20:31.186Z,13.70
2022-11-11T04:23:18.791Z,13.82
2022-11-11T04:26:06.335Z,13.88
2022-11-11T04:28:53.894Z,11.98
2022-11-11T04:31:41.468Z,13.49
2022-11-11T04:34:29.026Z,11.82
2022-11-11T04:37:16.690Z,13.24
2022-11-11T04:40:06.248Z,13.49
2022-11-11T04:42:53.847Z,14.07
2022-11-11T04:45:41.434Z,12.00
2022-11-11T04:48:29.025Z,11.62
2022-11-11T04:51:16.577Z,11.71
2022-11-11T04:54:04.149Z,11.44
2022-11-11T04:56:51.724Z,12.93
2022-11-11T04:59:39.314Z,12.79
2022-11-11T05:02:26.886Z,13.03
2022-11-11T05:05:14.485Z,12.11
2022-11-11T05:08:02.041Z,11.72
2022-11-11T05:10:49.624Z,10.78
2022-11-11T05:13:37.199Z,11.44
2022-11-11T05:16:24.755Z,11.69
2022-11-11T05:19:12.341Z,11.40
2022-11-11T05:21:59.913Z,11.49
2022-11-11T05:24:47.502Z,11.33
2022-11-11T05:27:35.091Z,12.23
2022-11-11T05:30:22.651Z,13.77
2022-11-11T05:33:10.316Z,13.16
2022-11-11T05:35:59.872Z,13.13
2022-11-11T05:38:47.455Z,13.23
2022-11-11T05:41:35.070Z,14.18
2022-11-11T05:44:22.658Z,14.12
2022-11-11T05:47:10.267Z,14.08
2022-11-11T05:49:57.838Z,15.24
2022-11-11T05:52:45.422Z,15.16
2022-11-11T05:55:32.985Z,15.66
2022-11-11T05:58:20.562Z,16.04
2022-11-11T06:01:08.126Z,16.30
2022-11-11T06:03:55.728Z,16.73
2022-11-11T06:06:43.353Z,16.35
2022-11-11T06:09:30.942Z,16.50
2022-11-11T06:12:18.515Z,16.44
2022-11-11T06:15:06.091Z,17.39
2022-11-11T06:17:53.686Z,17.38
2022-11-11T06:20:41.361Z,17.88
2022-11-11T06:23:28.946Z,18.04
2022-11-11T06:26:16.538Z,17.66
2022-11-11T06:29:04.144Z,18.70
2022-11-11T06:31:51.725Z,17.54
2022-11-11T06:34:39.330Z,18.38
2022-11-11T06:37:26.915Z,18.43
2022-11-11T06:40:18.914Z,18.52
2022-11-11T06:43:09.249Z,18.78
2022-11-11T06:45:56.838Z,19.11
2022-11-11T06:48:44.419Z,19.53
2022-11-11T06:51:32.043Z,18.50
2022-11-11T06:54:19.620Z,19.69
2022-11-11T06:57:08.657Z,20.10
2022-11-11T06:59:56.435Z,19.90
2022-11-11T07:02:44.022Z,19.88
2022-11-11T07:05:31.596Z,20.32
2022-11-11T07:08:19.288Z,20.50
2022-11-11T07:11:15.608Z,20.30
2022-11-11T07:14:06.212Z,20.80
2022-11-11T07:16:53.792Z,20.66
2022-11-11T07:19:41.572Z,20.85
2022-11-11T07:22:31.129Z,20.11
2022-11-11T07:25:21.841Z,20.79
2022-11-11T07:28:09.421Z,21.01
2022-11-11T07:30:57.026Z,20.80
2022-11-11T07:33:44.588Z,20.92
2022-11-11T07:36:32.175Z,21.03
2022-11-11T07:39:19.754Z,22.05
2022-11-11T07:42:08.927Z,20.96
2022-11-11T07:44:58.491Z,21.21
2022-11-11T07:47:46.091Z,19.48
2022-11-11T07:50:33.673Z,18.40
2022-11-11T07:53:21.533Z,18.09
2022-11-11T07:56:09.338Z,17.83
2022-11-11T07:58:56.925Z,18.73
2022-11-11T08:01:44.517Z,18.78
2022-11-11T08:04:32.114Z,19.32
2022-11-11T08:07:22.937Z,19.88
2022-11-11T08:10:11.162Z,19.27
2022-11-11T08:12:58.740Z,19.56
2022-11-11T08:15:46.347Z,19.43
2022-11-11T08:18:33.910Z,19.42
2022-11-11T08:21:21.530Z,19.89
2022-11-11T08:25:01.490Z,18.92
2022-11-11T08:27:16.633Z,19.80
2022-11-11T08:30:04.221Z,19.18
2022-11-11T08:33:11.787Z,18.52
2022-11-11T08:35:59.343Z,17.84
2022-11-11T08:38:46.930Z,18.11
2022-11-11T08:41:34.514Z,17.18
2022-11-11T08:44:22.088Z,17.54
2022-11-11T08:47:09.685Z,18.84
2022-11-11T08:49:57.261Z,18.27
2022-11-11T08:52:44.871Z,18.26
2022-11-11T08:55:32.456Z,17.44
2022-11-11T08:58:21.014Z,17.18
2022-11-11T09:01:08.644Z,18.14
2022-11-11T09:03:56.238Z,17.38
2022-11-11T09:06:43.838Z,17.06
2022-11-11T09:09:31.465Z,16.45
2022-11-11T09:12:19.072Z,16.47
2022-11-11T09:15:06.660Z,15.65
2022-11-11T09:17:54.245Z,15.26
2022-11-11T09:20:41.823Z,16.47
2022-11-11T09:23:29.421Z,16.37
2022-11-11T09:26:16.997Z,16.64
2022-11-11T09:29:04.593Z,16.76
2022-11-11T09:31:52.180Z,16.37
2022-11-11T09:34:39.758Z,16.90
2022-11-11T09:37:27.413Z,17.14
2022-11-11T09:40:14.991Z,16.92
2022-11-11T09:43:02.572Z,17.52
2022-11-11T09:45:50.158Z,17.49
2022-11-11T09:48:37.753Z,16.53
2022-11-11T09:51:25.357Z,16.58
2022-11-11T09:54:12.947Z,16.62
2022-11-11T09:57:00.513Z,16.36
2022-11-11T09:59:48.085Z,16.62
2022-11-11T10:02:35.655Z,16.15
2022-11-11T10:05:23.261Z,16.15
2022-11-11T10:08:10.841Z,16.37
2022-11-11T10:10:58.438Z,16.11
2022-11-11T10:13:46.031Z,16.04
2022-11-11T10:16:33.623Z,16.84
2022-11-11T10:19:21.189Z,16.90
2022-11-11T10:22:13.401Z,16.85
2022-11-11T10:25:01.360Z,16.99
2022-11-11T10:27:49.025Z,16.79
2022-11-11T10:30:36.611Z,16.64
2022-11-11T10:33:24.204Z,15.82
2022-11-11T10:36:11.805Z,15.19
2022-11-11T10:38:59.392Z,13.71
2022-11-11T10:41:49.029Z,14.19
2022-11-11T10:44:36.591Z,13.76
2022-11-11T10:47:24.193Z,13.75
2022-11-11T10:50:11.803Z,13.81
2022-11-11T10:52:59.375Z,14.43
2022-11-11T10:55:46.966Z,14.99
2022-11-11T10:58:34.568Z,15.06
2022-11-11T11:01:22.259Z,14.90
2022-11-11T11:04:09.881Z,15.74
2022-11-11T11:06:57.478Z,14.67
2022-11-11T11:09:45.094Z,15.34
2022-11-11T11:12:32.697Z,14.65
2022-11-11T11:15:20.277Z,14.97
2022-11-11T11:18:07.891Z,14.46
2022-11-11T11:20:55.477Z,14.78
2022-11-11T11:23:43.082Z,14.53
2022-11-11T11:26:30.631Z,16.07
2022-11-11T11:29:18.208Z,14.16
2022-11-11T11:32:05.810Z,13.89
2022-11-11T11:34:53.366Z,13.89
2022-11-11T11:37:40.937Z,14.37
2022-11-11T11:40:28.516Z,14.40
2022-11-11T11:43:16.097Z,15.19
2022-11-11T11:46:08.081Z,15.47
2022-11-11T11:48:56.032Z,14.97
2022-11-11T11:51:43.624Z,15.11
2022-11-11T11:54:31.200Z,15.86
2022-11-11T11:57:18.797Z,16.72
2022-11-11T12:00:06.374Z,15.64
2022-11-11T12:02:53.960Z,15.49
2022-11-11T12:05:41.581Z,15.86
2022-11-11T12:08:29.159Z,15.60
2022-11-11T12:11:16.739Z,16.19
2022-11-11T12:14:04.434Z,16.17
2022-11-11T12:16:54.005Z,15.59
2022-11-11T12:19:41.605Z,14.45
2022-11-11T12:22:29.204Z,15.41
2022-11-11T12:25:16.775Z,14.89
2022-11-11T12:28:04.350Z,14.79
2022-11-11T12:30:52.017Z,14.69
2022-11-11T12:33:39.576Z,14.69
2022-11-11T12:36:27.196Z,15.62
2022-11-11T12:39:15.459Z,14.39
2022-11-11T12:42:03.055Z,14.95
2022-11-11T12:44:50.620Z,15.63
2022-11-11T12:47:38.301Z,15.51
2022-11-11T12:50:25.876Z,15.42
2022-11-11T12:53:13.460Z,15.49
2022-11-11T12:56:01.035Z,15.71
2022-11-11T12:58:48.580Z,15.18
2022-11-11T13:01:36.197Z,16.88
2022-11-11T13:04:23.780Z,18.00
2022-11-11T13:07:11.463Z,17.67
2022-11-11T13:09:59.078Z,19.32
2022-11-11T13:12:46.670Z,18.80
2022-11-11T13:15:34.245Z,18.96
2022-11-11T13:18:21.827Z,18.79
2022-11-11T13:21:09.397Z,19.50
2022-11-11T13:23:56.993Z,19.65
2022-11-11T13:26:44.576Z,19.74
2022-11-11T13:29:32.210Z,20.16
2022-11-11T13:32:19.815Z,20.55
2022-11-11T13:35:07.405Z,19.03
2022-11-11T13:37:55.009Z,20.16
2022-11-11T13:40:42.577Z,20.25
2022-11-11T13:43:30.188Z,20.29
2022-11-11T13:46:17.761Z,19.68
2022-11-11T13:49:05.364Z,20.71
2022-11-11T13:51:52.923Z,21.36
2022-11-11T13:54:40.617Z,22.44
2022-11-11T13:57:30.200Z,23.51
2022-11-11T14:00:17.808Z,24.88
2022-11-11T14:03:05.366Z,25.65
2022-11-11T14:05:52.973Z,25.04
2022-11-11T14:08:40.545Z,25.08
2022-11-11T14:11:28.127Z,26.75
2022-11-11T14:14:15.706Z,25.84
2022-11-11T14:17:03.286Z,25.41
2022-11-11T14:19:50.867Z,25.35
2022-11-11T14:22:38.434Z,25.15
2022-11-11T14:25:25.996Z,25.19
2022-11-11T14:28:14.671Z,24.84
2022-11-11T14:31:02.270Z,24.82
2022-11-11T14:33:49.859Z,24.01
2022-11-11T14:36:37.479Z,22.57
2022-11-11T14:39:25.070Z,23.30
2022-11-11T14:42:12.646Z,24.97
2022-11-11T14:45:00.248Z,25.04
2022-11-11T14:47:47.807Z,24.45
2022-11-11T14:50:35.393Z,24.49
2022-11-11T14:53:23.231Z,23.05
2022-11-11T14:56:11.012Z,22.77
2022-11-11T14:58:58.575Z,23.24
2022-11-11T15:01:46.237Z,24.04
2022-11-11T15:04:33.859Z,23.37
2022-11-11T15:07:21.490Z,22.42
2022-11-11T15:10:09.133Z,22.51
2022-11-11T15:12:56.725Z,23.53
2022-11-11T15:15:44.320Z,24.19
2022-11-11T15:18:31.920Z,23.46
2022-11-11T15:21:19.502Z,24.60
2022-11-11T15:24:07.096Z,24.30
2022-11-11T15:26:54.702Z,22.95
2022-11-11T15:29:42.301Z,21.44
2022-11-11T15:32:30.023Z,20.60
2022-11-11T15:35:17.650Z,20.58
2022-11-11T15:38:05.426Z,19.34
2022-11-11T15:40:53.006Z,17.99
2022-11-11T15:43:40.590Z,18.18
2022-11-11T15:46:28.186Z,18.86
2022-11-11T15:49:15.769Z,18.84
2022-11-11T15:52:03.361Z,18.46
2022-11-11T15:54:50.953Z,19.19
2022-11-11T15:57:38.537Z,20.53
2022-11-11T16:00:26.098Z,20.42
2022-11-11T16:03:13.692Z,20.42
2022-11-11T16:06:06.949Z,21.16
2022-11-11T16:08:34.206Z,21.41
2022-11-11T16:11:01.549Z,22.29
2022-11-11T16:13:28.881Z,23.36
2022-11-11T16:15:56.249Z,23.00
2022-11-11T16:18:25.834Z,22.16
2022-11-11T16:20:53.241Z,22.35
2022-11-11T16:23:20.518Z,22.34
2022-11-11T16:25:52.315Z,22.72
2022-11-11T16:28:20.869Z,22.34
2022-11-11T16:30:48.165Z,21.29
2022-11-11T16:33:15.425Z,21.96
2022-11-11T16:35:42.702Z,22.53
2022-11-11T16:38:09.983Z,21.72
2022-11-11T16:40:37.254Z,22.07
2022-11-11T16:43:04.521Z,22.07
2022-11-11T16:45:31.793Z,22.55
2022-11-11T16:47:59.038Z,22.32
2022-11-11T16:50:26.313Z,22.95
2022-11-11T16:52:53.561Z,22.92
2022-11-11T16:55:20.815Z,23.29
2022-11-11T16:57:48.080Z,23.21
2022-11-11T17:00:15.351Z,24.20
2022-11-11T17:02:42.638Z,25.00
2022-11-11T17:05:09.883Z,24.86
2022-11-11T17:07:37.152Z,25.60
2022-11-11T17:10:04.403Z,25.39
2022-11-11T17:12:31.669Z,25.54
2022-11-11T17:14:58.938Z,25.40
2022-11-11T17:17:26.248Z,25.32
2022-11-11T17:19:53.517Z,25.79
2022-11-11T17:22:20.788Z,25.93
2022-11-11T17:24:48.036Z,26.32
2022-11-11T17:27:15.280Z,25.17
2022-11-11T17:29:42.552Z,25.75
2022-11-11T17:32:09.937Z,25.27
2022-11-11T17:34:37.204Z,25.29
2022-11-11T17:37:04.483Z,24.86
2022-11-11T17:39:31.733Z,25.97
2022-11-11T17:41:58.994Z,26.15
2022-11-11T17:44:45.148Z,27.11
2022-11-11T17:47:31.004Z,25.89
2022-11-11T17:50:16.801Z,26.02
2022-11-11T17:53:02.695Z,25.39
2022-11-11T17:55:48.537Z,26.15
2022-11-11T17:58:39.822Z,25.54
2022-11-11T18:01:26.928Z,24.86
2022-11-11T18:04:12.913Z,24.36
2022-11-11T18:06:58.924Z,23.82
2022-11-11T18:09:44.842Z,24.31
2022-11-11T18:12:30.779Z,24.71
2022-11-11T18:15:16.656Z,25.23
2022-11-11T18:18:02.435Z,25.14
2022-11-11T18:20:48.237Z,25.96
2022-11-11T18:23:34.274Z,25.26
2022-11-11T18:26:20.209Z,25.76
2022-11-11T18:29:05.965Z,27.50
2022-11-11T18:31:55.951Z,26.49
2022-11-11T18:34:42.347Z,26.04
2022-11-11T18:37:28.174Z,27.02
2022-11-11T18:40:15.762Z,27.24
2022-11-11T18:43:03.418Z,27.28
2022-11-11T18:45:51.011Z,27.67
2022-11-11T18:48:38.583Z,27.62
2022-11-11T18:51:26.166Z,27.87
2022-11-11T18:54:13.760Z,27.47
2022-11-11T18:57:01.368Z,26.09
2022-11-11T18:59:48.934Z,26.32
2022-11-11T19:02:36.536Z,26.96
2022-11-11T19:05:24.096Z,27.37
2022-11-11T19:08:11.686Z,28.03
2022-11-11T19:10:59.258Z,26.59
2022-11-11T19:13:46.849Z,25.46
2022-11-11T19:16:34.434Z,24.29
2022-11-11T19:19:22.011Z,22.67
2022-11-11T19:22:09.590Z,23.87
2022-11-11T19:24:57.189Z,23.81
2022-11-11T19:27:44.746Z,21.93
2022-11-11T19:30:32.332Z,22.21
2022-11-11T19:33:19.900Z,23.22
2022-11-11T19:36:07.501Z,24.57
2022-11-11T19:38:55.067Z,22.94
2022-11-11T19:41:42.654Z,22.04
2022-11-11T19:44:30.250Z,22.01
2022-11-11T19:47:17.837Z,22.08
2022-11-11T19:50:05.516Z,21.30
2022-11-11T19:52:53.078Z,22.29
2022-11-11T19:55:40.686Z,18.51
2022-11-11T19:58:28.283Z,18.54
2022-11-11T20:01:15.958Z,17.82
2022-11-11T20:04:03.601Z,18.52
2022-11-11T20:06:51.291Z,18.14
2022-11-11T20:09:38.883Z,17.70
2022-11-11T20:12:26.504Z,17.81
2022-11-11T20:15:14.065Z,19.03
2022-11-11T20:18:01.644Z,20.08
2022-11-11T20:20:49.227Z,18.95
2022-11-11T20:23:36.821Z,19.60
2022-11-11T20:26:24.410Z,18.20
2022-11-11T20:29:11.986Z,16.20
2022-11-11T20:31:59.537Z,15.63
2022-11-11T20:34:47.144Z,13.65
2022-11-11T20:37:34.740Z,10.30
2022-11-11T20:40:22.295Z,12.48
2022-11-11T20:43:09.875Z,13.43
2022-11-11T20:45:57.454Z,13.83
2022-11-11T20:48:45.001Z,12.46
2022-11-11T20:51:32.597Z,14.47
2022-11-11T20:54:20.189Z,10.93
2022-11-11T20:57:07.747Z,10.89
2022-11-11T20:59:55.419Z,13.31
2022-11-11T21:02:42.974Z,17.72
2022-11-11T21:05:30.534Z,16.50
2022-11-11T21:08:18.139Z,12.90
2022-11-11T21:11:05.689Z,8.94
2022-11-11T21:13:53.280Z,9.83
2022-11-11T21:16:40.908Z,14.96
2022-11-11T21:19:28.506Z,13.38
2022-11-11T21:22:16.055Z,12.53
2022-11-11T21:25:03.631Z,25.27
2022-11-11T21:27:51.198Z,30.08
2022-11-11T21:30:38.786Z,10.93
2022-11-11T21:33:26.613Z,13.03
2022-11-11T21:36:14.481Z,16.67
2022-11-11T21:39:02.172Z,15.60
2022-11-11T21:41:49.795Z,11.76
2022-11-11T21:44:37.463Z,17.13
2022-11-11T21:47:27.006Z,12.36
2022-11-11T21:50:14.579Z,11.38
2022-11-11T21:53:02.223Z,16.19
2022-11-11T21:55:49.850Z,21.35
2022-11-11T21:58:37.452Z,20.13
2022-11-11T22:01:29.751Z,21.78
2022-11-11T22:04:17.840Z,16.39
2022-11-11T22:07:05.460Z,19.74
2022-11-11T22:09:53.122Z,20.42
2022-11-11T22:12:40.724Z,25.29
2022-11-11T22:15:28.314Z,14.62
2022-11-11T22:18:15.875Z,14.79
2022-11-11T22:21:03.479Z,20.16
2022-11-11T22:23:51.033Z,13.88
2022-11-11T22:26:38.607Z,14.26
2022-11-11T22:29:26.150Z,14.62
2022-11-11T22:32:13.717Z,15.76
2022-11-11T22:35:01.297Z,17.08
2022-11-11T22:37:49.120Z,19.94
2022-11-11T22:40:36.829Z,22.25
2022-11-11T22:43:45.621Z,18.65
2022-11-11T22:46:31.974Z,17.55
2022-11-11T22:49:21.578Z,20.36
2022-11-11T22:52:09.142Z,27.46
2022-11-11T22:54:56.729Z,26.08
2022-11-11T22:57:44.333Z,25.07
2022-11-11T23:00:31.874Z,26.71
2022-11-11T23:03:19.444Z,26.18
2022-11-11T23:06:07.082Z,24.42
2022-11-11T23:08:54.678Z,17.30
2022-11-11T23:11:42.227Z,24.33
2022-11-11T23:14:29.829Z,25.90
2022-11-11T23:17:17.405Z,16.86
2022-11-11T23:20:04.986Z,19.29
2022-11-11T23:22:52.556Z,24.92
2022-11-11T23:25:40.146Z,27.71
2022-11-11T23:28:28.085Z,28.49
2022-11-11T23:31:15.913Z,19.65
2022-11-11T23:34:03.493Z,25.52
2022-11-11T23:36:51.110Z,28.78
2022-11-11T23:39:38.692Z,20.01
2022-11-11T23:42:26.330Z,17.54
2022-11-11T23:45:13.897Z,23.49
2022-11-11T23:48:01.458Z,23.12
2022-11-11T23:50:49.060Z,24.20
2022-11-11T23:53:36.687Z,24.68
2022-11-11T23:56:24.266Z,22.36
2022-11-11T23:59:11.841Z,22.95
